createdAt,value
2019-02-07T00:01:53.189Z,6.00
2019-02-07T00:06:57.363Z,4.00
2019-02-07T00:12:01.917Z,3.80
2019-02-07T00:17:06.017Z,5.40
2019-02-07T00:22:10.054Z,7.00
2019-02-07T00:27:14.090Z,4.00
2019-02-07T00:32:18.194Z,4.80
2019-02-07T00:37:22.495Z,5.25
2019-02-07T00:42:26.696Z,5.00
2019-02-07T00:47:30.790Z,5.25
2019-02-07T00:52:34.977Z,5.50
2019-02-07T00:57:39.167Z,4.60
2019-02-07T01:02:43.462Z,5.75
2019-02-07T01:07:47.641Z,5.20
2019-02-07T01:12:52.196Z,4.75
2019-02-07T01:17:56.309Z,4.80
2019-02-07T01:23:00.396Z,3.25
2019-02-07T01:28:04.895Z,4.60
2019-02-07T01:33:08.987Z,4.75
2019-02-07T01:38:13.273Z,5.40
2019-02-07T01:43:17.454Z,4.00
2019-02-07T01:48:21.627Z,3.50
2019-02-07T01:53:25.821Z,4.75
2019-02-07T01:58:29.939Z,3.25
2019-02-07T02:03:34.039Z,4.00
2019-02-07T02:08:38.255Z,3.75
2019-02-07T02:13:42.419Z,6.00
2019-02-07T02:18:46.545Z,4.00
2019-02-07T02:23:50.730Z,3.00
2019-02-07T02:28:54.857Z,2.75
2019-02-07T02:33:59.033Z,3.80
2019-02-07T02:39:05.328Z,3.80
2019-02-07T02:44:09.558Z,3.00
2019-02-07T02:49:13.775Z,4.33
2019-02-07T02:54:39.594Z,3.00
2019-02-07T02:59:43.818Z,5.00
2019-02-07T03:05:25.259Z,4.75
2019-02-07T03:10:38.197Z,2.50
2019-02-07T03:16:19.380Z,2.25
2019-02-07T03:21:35.835Z,2.00
2019-02-07T03:27:17.254Z,3.80
2019-02-07T03:32:58.238Z,2.50
2019-02-07T03:38:15.518Z,2.75
2019-02-07T03:43:38.781Z,3.00
2019-02-07T03:48:58.295Z,3.25
2019-02-07T03:54:13.218Z,2.80
2019-02-07T03:59:40.445Z,4.00
2019-02-07T04:05:02.295Z,1.40
2019-02-07T04:10:22.932Z,2.80
2019-02-07T04:15:43.648Z,2.00
2019-02-07T04:21:05.400Z,3.00
2019-02-07T04:26:34.601Z,2.50
2019-02-07T04:31:50.932Z,2.00
2019-02-07T04:37:04.431Z,2.00
2019-02-07T04:42:16.383Z,3.50
2019-02-07T04:47:37.794Z,2.75
2019-02-07T04:53:00.898Z,4.00
2019-02-07T04:58:20.386Z,2.00
2019-02-07T05:03:31.411Z,2.50
2019-02-07T05:08:57.512Z,3.50
2019-02-07T05:14:18.403Z,3.20
2019-02-07T05:19:47.447Z,3.00
2019-02-07T05:25:08.994Z,2.00
2019-02-07T05:30:33.049Z,2.80
2019-02-07T05:35:56.033Z,3.50
2019-02-07T05:41:14.131Z,2.20
2019-02-07T05:46:50.744Z,3.00
2019-02-07T05:52:23.022Z,2.75
2019-02-07T05:57:38.761Z,3.00
2019-02-07T06:02:48.430Z,1.75
2019-02-07T06:08:11.463Z,2.25
2019-02-07T06:13:40.631Z,2.00
2019-02-07T06:19:06.485Z,2.25
2019-02-07T06:24:28.064Z,2.00
2019-02-07T06:30:03.097Z,3.60
2019-02-07T06:35:23.209Z,1.80
2019-02-07T06:40:44.704Z,2.25
2019-02-07T06:46:19.859Z,2.60
2019-02-07T06:51:34.296Z,2.00
2019-02-07T06:56:53.271Z,3.40
2019-02-07T07:02:25.648Z,2.00
2019-02-07T07:07:48.737Z,2.75
2019-02-07T07:13:10.343Z,3.00
2019-02-07T07:18:45.494Z,1.80
2019-02-07T07:24:07.086Z,2.25
2019-02-07T07:29:36.015Z,1.00
2019-02-07T07:34:53.145Z,3.00
2019-02-07T07:40:14.770Z,2.75
2019-02-07T07:45:29.586Z,2.00
2019-02-07T07:50:51.405Z,3.75
2019-02-07T07:56:02.239Z,2.25
2019-02-07T08:01:23.963Z,4.00
2019-02-07T08:06:42.382Z,2.40
2019-02-07T08:11:53.355Z,14.00
2019-02-07T08:17:32.544Z,20.25
2019-02-07T08:22:54.026Z,18.00
2019-02-07T08:28:16.404Z,14.75
2019-02-07T08:33:48.612Z,13.00
2019-02-07T08:38:59.383Z,14.00
2019-02-07T08:44:22.971Z,10.20
2019-02-07T08:49:44.664Z,11.00
2019-02-07T08:55:16.663Z,9.25
2019-02-07T09:00:39.809Z,9.80
2019-02-07T09:06:08.358Z,9.00
2019-02-07T09:11:39.530Z,9.00
2019-02-07T09:16:57.982Z,8.50
2019-02-07T09:22:23.847Z,9.00
2019-02-07T09:27:38.911Z,8.50
2019-02-07T09:33:20.080Z,7.00
2019-02-07T09:38:41.654Z,7.60
2019-02-07T09:44:09.519Z,7.20
2019-02-07T09:49:35.822Z,6.60
2019-02-07T09:54:59.420Z,5.80
2019-02-07T10:00:21.505Z,8.00
2019-02-07T10:05:47.742Z,9.25
2019-02-07T10:11:16.660Z,7.00
2019-02-07T10:16:29.015Z,5.25
2019-02-07T10:21:51.265Z,6.20
2019-02-07T10:27:16.931Z,7.40
2019-02-07T10:32:28.409Z,8.00
2019-02-07T10:37:50.062Z,5.00
2019-02-07T10:43:13.078Z,7.25
2019-02-07T10:48:31.508Z,7.00
2019-02-07T10:53:41.509Z,7.00
2019-02-07T10:59:05.341Z,6.50
2019-02-07T11:04:20.734Z,7.75
2019-02-07T11:09:49.618Z,7.50
2019-02-07T11:15:06.568Z,6.25
2019-02-07T11:20:43.703Z,7.60
2019-02-07T11:26:02.271Z,6.80
2019-02-07T11:31:28.224Z,7.75
2019-02-07T11:36:54.219Z,8.20
2019-02-07T11:42:14.916Z,6.80
2019-02-07T11:47:47.081Z,7.80
2019-02-07T11:53:16.272Z,4.20
2019-02-07T11:58:33.524Z,7.20
2019-02-07T12:04:03.090Z,7.00
2019-02-07T12:09:31.173Z,7.50
2019-02-07T12:14:45.069Z,6.80
2019-02-07T12:20:22.972Z,5.00
2019-02-07T12:26:04.510Z,5.60
2019-02-07T12:31:17.434Z,6.40
2019-02-07T12:36:32.576Z,7.25
2019-02-07T12:42:03.942Z,6.00
2019-02-07T12:47:27.347Z,4.50
2019-02-07T12:52:48.820Z,8.00
2019-02-07T12:58:25.161Z,7.60
2019-02-07T13:03:58.505Z,7.00
2019-02-07T13:09:39.951Z,5.75
2019-02-07T13:14:59.838Z,6.60
2019-02-07T13:20:22.218Z,4.00
2019-02-07T13:25:43.178Z,3.50
2019-02-07T13:31:02.079Z,5.00
2019-02-07T13:36:40.747Z,6.75
2019-02-07T13:42:06.284Z,5.25
2019-02-07T13:47:38.376Z,4.20
2019-02-07T13:53:03.127Z,3.60
2019-02-07T13:58:24.969Z,5.60
2019-02-07T14:03:44.621Z,4.00
2019-02-07T14:09:06.165Z,5.40
2019-02-07T14:14:47.399Z,5.00
2019-02-07T14:20:23.395Z,6.00
2019-02-07T14:25:55.599Z,3.50
2019-02-07T14:31:21.945Z,5.25
2019-02-07T14:37:00.241Z,4.00
2019-02-07T14:42:15.543Z,4.80
2019-02-07T14:47:19.675Z,5.00
2019-02-07T14:52:23.890Z,5.50
2019-02-07T14:57:28.121Z,4.00
2019-02-07T15:02:32.599Z,3.60
2019-02-07T15:07:36.730Z,4.00
2019-02-07T15:12:40.857Z,3.75
2019-02-07T15:17:45.068Z,3.75
2019-02-07T15:22:49.265Z,4.00
2019-02-07T15:27:53.651Z,5.00
2019-02-07T15:33:03.755Z,3.75
2019-02-07T15:38:08.014Z,6.00
2019-02-07T15:43:12.263Z,3.00
2019-02-07T15:48:16.516Z,5.80
2019-02-07T15:53:20.653Z,4.40
2019-02-07T15:58:49.647Z,4.50
2019-02-07T16:04:12.945Z,6.60
2019-02-07T16:09:18.573Z,3.00
2019-02-07T16:14:22.861Z,4.00
2019-02-07T16:19:27.126Z,4.20
2019-02-07T16:24:31.561Z,4.20
2019-02-07T16:29:35.791Z,3.75
2019-02-07T16:34:40.125Z,3.33
2019-02-07T16:39:44.277Z,3.75
2019-02-07T16:44:48.487Z,4.80
2019-02-07T16:49:53.090Z,3.80
2019-02-07T16:54:57.437Z,4.25
2019-02-07T17:00:01.687Z,3.40
2019-02-07T17:05:07.435Z,5.20
2019-02-07T17:10:12.843Z,5.80
2019-02-07T17:15:18.314Z,7.00
2019-02-07T17:20:25.719Z,8.60
2019-02-07T17:25:30.835Z,14.50
2019-02-07T17:30:35.063Z,14.80
2019-02-07T17:35:39.222Z,12.40
2019-02-07T17:40:44.115Z,12.60
2019-02-07T17:45:48.595Z,13.25
2019-02-07T17:50:52.716Z,14.75
2019-02-07T17:55:56.782Z,10.60
2019-02-07T18:01:06.736Z,11.00
2019-02-07T18:06:11.908Z,11.00
2019-02-07T18:11:16.253Z,10.00
2019-02-07T18:16:21.004Z,9.40
2019-02-07T18:21:33.942Z,10.25
2019-02-07T18:26:32.365Z,10.50
2019-02-07T18:31:37.798Z,8.00
2019-02-07T18:36:44.447Z,10.50
2019-02-07T18:41:50.973Z,11.20
2019-02-07T18:46:56.774Z,9.00
2019-02-07T18:52:02.523Z,8.75
2019-02-07T18:57:09.675Z,8.75
2019-02-07T19:02:15.418Z,8.00
2019-02-07T19:07:20.955Z,9.00
2019-02-07T19:12:27.401Z,8.60
2019-02-07T19:17:32.244Z,9.25
2019-02-07T19:22:37.657Z,8.00
2019-02-07T19:27:43.279Z,7.00
2019-02-07T19:32:49.852Z,7.20
2019-02-07T19:37:57.292Z,9.40
2019-02-07T19:43:04.168Z,8.00
2019-02-07T19:48:10.687Z,7.80
2019-02-07T19:53:17.769Z,7.75
2019-02-07T19:58:24.200Z,7.50
2019-02-07T20:03:30.855Z,6.40
2019-02-07T20:08:37.983Z,8.20
2019-02-07T20:13:43.142Z,6.40
2019-02-07T20:18:49.223Z,5.40
2019-02-07T20:23:54.734Z,7.40
2019-02-07T20:29:01.189Z,7.25
2019-02-07T20:34:07.169Z,6.00
2019-02-07T20:39:12.266Z,7.50
2019-02-07T20:44:18.245Z,5.80
2019-02-07T20:49:23.830Z,5.50
2019-02-07T20:54:30.136Z,7.25
2019-02-07T20:59:35.426Z,6.75
2019-02-07T21:04:39.768Z,6.75
2019-02-07T21:09:44.066Z,6.50
2019-02-07T21:14:48.348Z,6.75
2019-02-07T21:19:54.343Z,6.00
2019-02-07T21:24:58.968Z,6.00
2019-02-07T21:30:03.672Z,6.75
2019-02-07T21:35:11.689Z,6.40
2019-02-07T21:40:18.468Z,5.20
2019-02-07T21:45:22.719Z,5.50
2019-02-07T21:50:28.317Z,5.60
2019-02-07T21:55:32.485Z,5.00
2019-02-07T22:00:38.551Z,5.75
2019-02-07T22:05:42.934Z,6.25
2019-02-07T22:10:47.312Z,6.20
2019-02-07T22:15:51.617Z,7.00
2019-02-07T22:20:55.811Z,5.00
2019-02-07T22:26:00.031Z,5.50
2019-02-07T22:31:04.433Z,5.40
2019-02-07T22:36:08.718Z,6.50
2019-02-07T22:41:13.039Z,6.00
2019-02-07T22:46:17.243Z,6.00
2019-02-07T22:51:22.077Z,4.75
2019-02-07T22:56:26.389Z,5.00
2019-02-07T23:01:48.687Z,5.00
2019-02-07T23:06:53.031Z,6.25
2019-02-07T23:11:57.374Z,5.20
2019-02-07T23:17:01.626Z,5.25
2019-02-07T23:22:06.148Z,6.50
2019-02-07T23:27:10.572Z,5.50
2019-02-07T23:32:14.791Z,6.00
2019-02-07T23:37:18.969Z,5.00
2019-02-07T23:42:23.660Z,4.40
2019-02-07T23:47:27.941Z,4.00
2019-02-07T23:52:32.357Z,4.00
2019-02-07T23:57:36.561Z,4.75
